createdAt,value
2017-08-19T00:02:07.853Z,19.86
2017-08-19T00:04:35.300Z,19.84
2017-08-19T00:07:02.757Z,19.87
2017-08-19T00:09:30.232Z,19.83
2017-08-19T00:11:57.676Z,19.81
2017-08-19T00:14:25.114Z,19.86
2017-08-19T00:16:52.588Z,19.97
2017-08-19T00:19:20.049Z,20.00
2017-08-19T00:21:47.526Z,20.04
2017-08-19T00:24:14.978Z,20.04
2017-08-19T00:26:42.420Z,20.04
2017-08-19T00:29:09.898Z,20.08
2017-08-19T00:31:37.362Z,20.04
2017-08-19T00:34:04.837Z,20.09
2017-08-19T00:36:32.281Z,20.05
2017-08-19T00:38:59.722Z,20.08
2017-08-19T00:41:27.184Z,20.11
2017-08-19T00:43:54.654Z,20.09
2017-08-19T00:46:22.144Z,20.04
2017-08-19T00:48:49.585Z,20.04
2017-08-19T00:51:17.041Z,19.99
2017-08-19T00:53:44.515Z,19.94
2017-08-19T00:56:11.964Z,20.00
2017-08-19T00:58:39.526Z,19.95
2017-08-19T01:01:06.989Z,19.93
2017-08-19T01:03:34.441Z,19.92
2017-08-19T01:06:01.904Z,19.90
2017-08-19T01:08:29.377Z,19.85
2017-08-19T01:10:56.857Z,19.87
2017-08-19T01:13:24.321Z,19.85
2017-08-19T01:15:51.772Z,19.81
2017-08-19T01:18:19.252Z,19.70
2017-08-19T01:20:46.701Z,19.59
2017-08-19T01:23:14.169Z,19.53
2017-08-19T01:25:53.273Z,19.45
2017-08-19T01:28:20.743Z,19.44
2017-08-19T01:30:48.191Z,19.37
2017-08-19T01:33:15.662Z,19.39
2017-08-19T01:35:43.108Z,19.40
2017-08-19T01:38:10.553Z,19.35
2017-08-19T01:40:38.017Z,19.34
2017-08-19T01:43:05.469Z,19.33
2017-08-19T01:45:32.922Z,19.30
2017-08-19T01:48:00.388Z,19.30
2017-08-19T01:50:27.834Z,19.26
2017-08-19T01:52:55.302Z,19.24
2017-08-19T01:55:22.773Z,19.11
2017-08-19T01:57:50.223Z,18.96
2017-08-19T02:00:17.694Z,18.93
2017-08-19T02:02:45.139Z,18.79
2017-08-19T02:05:12.612Z,18.77
2017-08-19T02:07:40.064Z,18.72
2017-08-19T02:10:07.510Z,18.63
2017-08-19T02:12:34.976Z,18.60
2017-08-19T02:15:02.463Z,18.58
2017-08-19T02:17:29.897Z,18.53
2017-08-19T02:19:57.382Z,18.47
2017-08-19T02:22:24.854Z,18.51
2017-08-19T02:24:52.329Z,18.46
2017-08-19T02:27:19.783Z,18.48
2017-08-19T02:29:47.242Z,18.43
2017-08-19T02:32:14.690Z,18.42
2017-08-19T02:34:42.157Z,18.36
2017-08-19T02:37:09.606Z,18.28
2017-08-19T02:39:37.054Z,18.16
2017-08-19T02:42:04.529Z,18.22
2017-08-19T02:44:31.982Z,18.14
2017-08-19T02:46:59.457Z,18.12
2017-08-19T02:49:26.937Z,18.11
2017-08-19T02:51:54.389Z,18.09
2017-08-19T02:54:21.849Z,18.09
2017-08-19T02:56:49.317Z,18.07
2017-08-19T02:59:16.769Z,18.06
2017-08-19T03:01:44.237Z,17.97
2017-08-19T03:04:11.682Z,17.96
2017-08-19T03:06:39.133Z,17.93
2017-08-19T03:09:06.609Z,17.92
2017-08-19T03:11:34.049Z,17.85
2017-08-19T03:14:01.492Z,17.81
2017-08-19T03:16:28.967Z,17.79
2017-08-19T03:18:56.432Z,17.82
2017-08-19T03:21:23.902Z,17.74
2017-08-19T03:23:51.359Z,17.76
2017-08-19T03:26:18.810Z,17.70
2017-08-19T03:28:46.290Z,17.67
2017-08-19T03:31:13.734Z,17.69
2017-08-19T03:33:41.206Z,17.68
2017-08-19T03:36:08.676Z,17.69
2017-08-19T03:38:36.166Z,17.73
2017-08-19T03:41:03.623Z,17.59
2017-08-19T03:43:31.068Z,17.73
2017-08-19T03:45:58.544Z,17.57
2017-08-19T03:48:26.003Z,17.70
2017-08-19T03:50:53.449Z,17.72
2017-08-19T03:53:20.930Z,17.66
2017-08-19T03:55:48.377Z,17.60
2017-08-19T03:58:15.829Z,17.74
2017-08-19T04:00:43.298Z,17.73
2017-08-19T04:03:10.773Z,17.68
2017-08-19T04:05:38.221Z,17.68
2017-08-19T04:08:05.665Z,17.72
2017-08-19T04:10:33.137Z,17.75
2017-08-19T04:13:00.593Z,17.75
2017-08-19T04:15:28.040Z,17.74
2017-08-19T04:17:55.510Z,17.63
2017-08-19T04:20:22.983Z,17.59
2017-08-19T04:22:50.437Z,17.55
2017-08-19T04:25:17.897Z,17.60
2017-08-19T04:27:45.368Z,17.63
2017-08-19T04:30:12.838Z,17.50
2017-08-19T04:32:40.282Z,17.51
2017-08-19T04:35:07.724Z,17.63
2017-08-19T04:37:35.202Z,17.56
2017-08-19T04:40:02.673Z,17.57
2017-08-19T04:42:30.122Z,17.63
2017-08-19T04:44:57.565Z,17.73
2017-08-19T04:47:25.029Z,17.77
2017-08-19T04:49:52.501Z,17.76
2017-08-19T04:52:19.949Z,17.70
2017-08-19T04:54:47.422Z,17.83
2017-08-19T04:57:14.880Z,17.79
2017-08-19T04:59:42.343Z,17.79
2017-08-19T05:02:09.803Z,17.77
2017-08-19T05:04:37.285Z,17.76
2017-08-19T05:07:04.732Z,17.85
2017-08-19T05:09:32.213Z,17.78
2017-08-19T05:11:59.689Z,17.83
2017-08-19T05:14:27.134Z,17.81
2017-08-19T05:16:54.689Z,17.72
2017-08-19T05:19:22.153Z,17.72
2017-08-19T05:21:49.603Z,17.78
2017-08-19T05:24:17.084Z,17.79
2017-08-19T05:26:44.529Z,17.72
2017-08-19T05:29:11.978Z,17.72
2017-08-19T05:31:39.458Z,17.65
2017-08-19T05:34:06.909Z,17.74
2017-08-19T05:36:34.380Z,17.78
2017-08-19T05:39:01.853Z,17.74
2017-08-19T05:41:29.330Z,17.85
2017-08-19T05:43:56.801Z,17.73
2017-08-19T05:46:24.258Z,17.74
2017-08-19T05:48:51.729Z,17.78
2017-08-19T05:51:19.177Z,17.77
2017-08-19T05:53:46.649Z,17.80
2017-08-19T05:56:14.093Z,17.86
2017-08-19T05:58:41.586Z,17.90
2017-08-19T06:01:09.043Z,17.93
2017-08-19T06:03:36.487Z,17.95
2017-08-19T06:06:03.965Z,18.00
2017-08-19T06:08:31.424Z,18.06
2017-08-19T06:11:00.566Z,17.99
2017-08-19T06:13:28.017Z,18.01
2017-08-19T06:15:55.460Z,17.96
2017-08-19T06:18:22.937Z,17.98
2017-08-19T06:20:50.630Z,18.00
2017-08-19T06:23:18.117Z,18.02
2017-08-19T06:25:45.576Z,18.06
2017-08-19T06:28:13.032Z,18.03
2017-08-19T06:30:40.511Z,18.01
2017-08-19T06:33:07.970Z,18.00
2017-08-19T06:35:35.450Z,18.03
2017-08-19T06:38:02.902Z,18.06
2017-08-19T06:40:30.350Z,18.05
2017-08-19T06:42:57.817Z,18.16
2017-08-19T06:45:25.271Z,18.13
2017-08-19T06:47:52.729Z,18.22
2017-08-19T06:50:20.211Z,18.12
2017-08-19T06:52:47.665Z,18.10
2017-08-19T06:55:15.115Z,18.11
2017-08-19T06:57:43.159Z,18.06
2017-08-19T07:00:10.643Z,17.97
2017-08-19T07:02:38.121Z,17.89
2017-08-19T07:05:05.749Z,17.96
2017-08-19T07:07:33.227Z,17.89
2017-08-19T07:10:00.677Z,17.87
2017-08-19T07:12:28.134Z,17.88
2017-08-19T07:14:55.603Z,18.00
2017-08-19T07:17:23.058Z,18.13
2017-08-19T07:19:50.693Z,18.06
2017-08-19T07:22:18.841Z,17.69
2017-08-19T07:24:46.290Z,17.65
2017-08-19T07:27:13.774Z,17.66
2017-08-19T07:29:41.225Z,17.71
2017-08-19T07:32:08.685Z,17.76
2017-08-19T07:34:36.157Z,18.00
2017-08-19T07:37:04.253Z,17.87
2017-08-19T07:39:31.742Z,17.76
2017-08-19T07:41:59.207Z,17.84
2017-08-19T07:44:26.682Z,17.85
2017-08-19T07:46:54.882Z,18.03
2017-08-19T07:49:22.383Z,18.02
2017-08-19T07:51:49.865Z,17.88
2017-08-19T07:54:17.321Z,17.88
2017-08-19T07:56:45.601Z,17.96
2017-08-19T07:59:13.588Z,17.92
2017-08-19T08:01:41.046Z,17.93
2017-08-19T08:04:08.521Z,18.08
2017-08-19T08:06:36.067Z,18.05
2017-08-19T08:09:03.660Z,18.00
2017-08-19T08:11:31.184Z,18.01
2017-08-19T08:13:58.643Z,17.84
2017-08-19T08:16:26.765Z,17.96
2017-08-19T08:18:54.210Z,17.96
2017-08-19T08:21:21.685Z,17.93
2017-08-19T08:23:49.161Z,18.18
2017-08-19T08:26:17.232Z,18.23
2017-08-19T08:28:44.709Z,18.15
2017-08-19T08:31:12.161Z,18.16
2017-08-19T08:33:39.642Z,18.10
2017-08-19T08:36:08.163Z,18.06
2017-08-19T08:38:36.089Z,18.29
2017-08-19T08:41:03.538Z,18.24
2017-08-19T08:43:31.002Z,18.21
2017-08-19T08:45:58.441Z,18.10
2017-08-19T08:48:25.937Z,17.97
2017-08-19T08:50:53.981Z,18.09
2017-08-19T08:53:22.456Z,18.18
2017-08-19T08:55:50.004Z,18.10
2017-08-19T08:58:17.465Z,18.45
2017-08-19T09:00:45.446Z,18.49
2017-08-19T09:03:12.909Z,18.82
2017-08-19T09:05:40.420Z,18.91
2017-08-19T09:08:08.773Z,19.06
2017-08-19T09:10:36.218Z,19.32
2017-08-19T09:13:03.669Z,19.59
2017-08-19T09:15:31.136Z,19.38
2017-08-19T09:17:58.575Z,19.40
2017-08-19T09:20:26.064Z,19.16
2017-08-19T09:22:54.049Z,19.31
2017-08-19T09:25:21.501Z,19.34
2017-08-19T09:27:48.970Z,19.61
2017-08-19T09:30:16.809Z,19.32
2017-08-19T09:32:44.270Z,20.14
2017-08-19T09:35:11.719Z,20.52
2017-08-19T09:37:39.165Z,20.36
2017-08-19T09:40:06.638Z,20.03
2017-08-19T09:42:34.088Z,20.03
2017-08-19T09:45:01.629Z,20.09
2017-08-19T09:47:29.106Z,20.25
2017-08-19T09:49:56.550Z,20.81
2017-08-19T09:52:24.000Z,20.64
2017-08-19T09:54:51.481Z,20.74
2017-08-19T09:57:18.953Z,20.56
2017-08-19T09:59:46.436Z,20.73
2017-08-19T10:02:13.879Z,20.46
2017-08-19T10:04:41.328Z,20.37
2017-08-19T10:07:08.802Z,20.34
2017-08-19T10:09:48.112Z,20.37
2017-08-19T10:12:15.581Z,20.72
2017-08-19T10:14:43.026Z,20.41
2017-08-19T10:17:10.472Z,20.58
2017-08-19T10:19:37.934Z,20.37
2017-08-19T10:22:05.386Z,20.38
2017-08-19T10:24:33.276Z,20.44
2017-08-19T10:27:00.723Z,20.69
2017-08-19T10:29:28.172Z,20.83
2017-08-19T10:31:55.643Z,20.75
2017-08-19T10:34:23.086Z,20.56
2017-08-19T10:36:50.566Z,20.43
2017-08-19T10:39:18.045Z,20.48
2017-08-19T10:41:45.517Z,20.33
2017-08-19T10:44:12.985Z,20.06
2017-08-19T10:46:40.432Z,20.28
2017-08-19T10:49:07.872Z,20.27
2017-08-19T10:51:35.353Z,20.12
2017-08-19T10:54:02.922Z,20.09
2017-08-19T10:56:30.393Z,19.83
2017-08-19T10:58:57.939Z,19.78
2017-08-19T11:01:25.461Z,19.62
2017-08-19T11:03:52.941Z,19.51
2017-08-19T11:06:20.409Z,19.37
2017-08-19T11:08:47.857Z,19.44
2017-08-19T11:11:15.321Z,19.43
2017-08-19T11:13:42.781Z,19.48
2017-08-19T11:16:10.244Z,19.35
2017-08-19T11:18:37.697Z,19.11
2017-08-19T11:21:05.183Z,18.98
2017-08-19T11:23:32.683Z,18.96
2017-08-19T11:26:00.131Z,18.62
2017-08-19T11:28:27.597Z,18.63
2017-08-19T11:30:55.078Z,18.58
2017-08-19T11:33:22.758Z,18.81
2017-08-19T11:35:50.693Z,18.63
2017-08-19T11:38:18.171Z,18.74
2017-08-19T11:40:45.636Z,18.87
2017-08-19T11:43:13.220Z,19.00
2017-08-19T11:45:40.685Z,18.94
2017-08-19T11:48:08.132Z,18.91
2017-08-19T11:50:35.816Z,18.87
2017-08-19T11:53:03.312Z,18.97
2017-08-19T11:55:31.374Z,19.05
2017-08-19T11:57:58.822Z,19.15
2017-08-19T12:00:26.280Z,19.05
2017-08-19T12:02:53.738Z,19.20
2017-08-19T12:05:21.580Z,18.70
2017-08-19T12:07:49.100Z,18.82
2017-08-19T12:10:17.325Z,18.84
2017-08-19T12:12:44.794Z,18.97
2017-08-19T12:15:12.338Z,19.07
2017-08-19T12:17:39.781Z,19.16
2017-08-19T12:20:07.225Z,19.38
2017-08-19T12:22:34.706Z,19.47
2017-08-19T12:25:02.459Z,19.47
2017-08-19T12:27:29.989Z,19.62
2017-08-19T12:29:58.234Z,19.76
2017-08-19T12:32:25.706Z,19.58
2017-08-19T12:34:53.152Z,19.82
2017-08-19T12:37:20.626Z,19.99
2017-08-19T12:39:48.086Z,20.35
2017-08-19T12:42:16.466Z,19.64
2017-08-19T12:44:43.945Z,20.21
2017-08-19T12:47:11.898Z,20.17
2017-08-19T12:49:39.340Z,20.06
2017-08-19T12:52:06.804Z,19.86
2017-08-19T12:54:34.657Z,19.31
2017-08-19T12:57:02.115Z,19.63
2017-08-19T12:59:29.584Z,19.56
2017-08-19T13:01:57.461Z,19.52
2017-08-19T13:04:25.206Z,19.39
2017-08-19T13:06:53.510Z,19.86
2017-08-19T13:09:20.967Z,20.04
2017-08-19T13:11:48.697Z,20.04
2017-08-19T13:14:16.178Z,19.92
2017-08-19T13:16:43.652Z,19.95
2017-08-19T13:19:11.405Z,19.68
2017-08-19T13:21:38.878Z,19.87
2017-08-19T13:24:06.322Z,19.66
2017-08-19T13:26:33.800Z,19.69
2017-08-19T13:29:01.837Z,19.35
2017-08-19T13:31:29.317Z,19.42
2017-08-19T13:33:57.314Z,19.46
2017-08-19T13:36:24.794Z,19.34
2017-08-19T13:38:52.917Z,19.29
2017-08-19T13:41:20.362Z,19.23
2017-08-19T13:43:47.845Z,19.08
2017-08-19T13:46:15.292Z,19.12
2017-08-19T13:48:42.729Z,19.00
2017-08-19T13:51:10.197Z,19.00
2017-08-19T13:53:38.230Z,18.88
2017-08-19T13:56:05.692Z,19.07
2017-08-19T13:58:33.888Z,19.10
2017-08-19T14:01:01.361Z,19.07
2017-08-19T14:03:28.830Z,19.11
2017-08-19T14:05:56.535Z,19.13
2017-08-19T14:08:24.716Z,19.30
2017-08-19T14:10:52.221Z,19.46
2017-08-19T14:13:19.681Z,19.61
2017-08-19T14:15:47.900Z,19.56
2017-08-19T14:18:15.345Z,19.46
2017-08-19T14:20:42.819Z,19.45
2017-08-19T14:23:10.302Z,19.34
2017-08-19T14:25:37.870Z,19.49
2017-08-19T14:28:05.346Z,19.38
2017-08-19T14:30:32.804Z,19.23
2017-08-19T14:33:00.483Z,19.39
2017-08-19T14:35:29.097Z,19.20
2017-08-19T14:37:57.132Z,19.47
2017-08-19T14:40:24.599Z,19.08
2017-08-19T14:42:53.161Z,19.24
2017-08-19T14:45:20.630Z,19.09
2017-08-19T14:47:49.060Z,19.12
2017-08-19T14:50:16.680Z,19.07
2017-08-19T14:52:44.468Z,19.00
2017-08-19T14:55:11.952Z,19.00
2017-08-19T14:57:40.224Z,18.96
2017-08-19T15:00:07.822Z,19.07
2017-08-19T15:02:35.561Z,19.00
2017-08-19T15:05:02.995Z,18.91
2017-08-19T15:07:31.219Z,18.92
2017-08-19T15:09:59.381Z,18.74
2017-08-19T15:12:26.865Z,18.85
2017-08-19T15:14:54.325Z,18.80
2017-08-19T15:17:22.314Z,18.83
2017-08-19T15:19:50.650Z,18.68
2017-08-19T15:22:18.775Z,18.77
2017-08-19T15:24:46.271Z,18.80
2017-08-19T15:27:13.723Z,18.69
2017-08-19T15:29:41.897Z,18.61
2017-08-19T15:32:10.696Z,18.56
2017-08-19T15:34:38.136Z,18.46
2017-08-19T15:37:06.964Z,18.44
2017-08-19T15:39:34.489Z,18.38
2017-08-19T15:42:01.956Z,18.33
2017-08-19T15:44:30.057Z,18.36
2017-08-19T15:46:57.525Z,18.26
2017-08-19T15:49:25.008Z,18.24
2017-08-19T15:51:53.217Z,18.36
2017-08-19T15:54:21.033Z,18.38
2017-08-19T15:56:48.472Z,18.36
2017-08-19T15:59:15.945Z,18.23
2017-08-19T16:01:43.383Z,18.18
2017-08-19T16:04:11.789Z,18.16
2017-08-19T16:06:39.253Z,18.07
2017-08-19T16:09:07.000Z,18.17
2017-08-19T16:11:34.442Z,18.09
2017-08-19T16:14:01.902Z,18.02
2017-08-19T16:16:29.358Z,18.10
2017-08-19T16:18:56.809Z,18.09
2017-08-19T16:21:24.273Z,18.00
2017-08-19T16:23:52.164Z,18.11
2017-08-19T16:26:19.619Z,18.25
2017-08-19T16:28:47.093Z,18.20
2017-08-19T16:31:14.630Z,18.00
2017-08-19T16:33:42.141Z,18.02
2017-08-19T16:36:10.283Z,18.20
2017-08-19T16:38:37.762Z,18.30
2017-08-19T16:41:06.144Z,18.29
2017-08-19T16:43:33.590Z,18.19
2017-08-19T16:46:01.060Z,18.21
2017-08-19T16:48:28.525Z,18.24
2017-08-19T16:50:56.110Z,18.25
2017-08-19T16:53:23.578Z,18.21
2017-08-19T16:55:51.029Z,18.02
2017-08-19T16:58:18.521Z,18.27
2017-08-19T17:00:45.966Z,18.19
2017-08-19T17:03:13.417Z,18.19
2017-08-19T17:05:40.885Z,18.03
2017-08-19T17:08:08.357Z,17.88
2017-08-19T17:10:35.808Z,17.70
2017-08-19T17:13:03.556Z,17.88
2017-08-19T17:15:31.057Z,17.89
2017-08-19T17:17:58.505Z,17.95
2017-08-19T17:20:25.972Z,17.80
2017-08-19T17:22:53.443Z,17.79
2017-08-19T17:25:21.771Z,17.71
2017-08-19T17:27:49.248Z,17.79
2017-08-19T17:30:16.718Z,17.77
2017-08-19T17:32:44.166Z,17.89
2017-08-19T17:35:11.690Z,17.81
2017-08-19T17:37:39.174Z,17.90
2017-08-19T17:40:06.674Z,17.89
2017-08-19T17:42:34.135Z,17.99
2017-08-19T17:45:01.609Z,17.97
2017-08-19T17:47:29.076Z,17.97
2017-08-19T17:49:56.596Z,17.94
2017-08-19T17:52:24.090Z,17.93
2017-08-19T17:54:51.926Z,17.90
2017-08-19T17:57:19.409Z,17.98
2017-08-19T17:59:46.856Z,17.97
2017-08-19T18:02:14.393Z,17.95
2017-08-19T18:04:41.881Z,17.91
2017-08-19T18:07:09.346Z,17.87
2017-08-19T18:09:36.785Z,17.88
2017-08-19T18:12:04.258Z,17.83
2017-08-19T18:14:31.707Z,17.58
2017-08-19T18:16:59.198Z,17.45
2017-08-19T18:19:26.648Z,17.37
2017-08-19T18:21:54.118Z,17.30
2017-08-19T18:24:21.569Z,17.30
2017-08-19T18:26:49.016Z,17.25
2017-08-19T18:29:16.519Z,17.17
2017-08-19T18:31:43.974Z,17.11
2017-08-19T18:34:11.441Z,17.60
2017-08-19T18:36:38.897Z,17.31
2017-08-19T18:39:06.346Z,17.47
2017-08-19T18:41:33.826Z,17.44
2017-08-19T18:44:01.596Z,17.08
2017-08-19T18:46:30.345Z,17.06
2017-08-19T18:48:57.804Z,17.00
2017-08-19T18:51:25.284Z,16.88
2017-08-19T18:53:52.740Z,16.88
2017-08-19T18:56:20.861Z,16.86
2017-08-19T18:58:48.555Z,16.77
2017-08-19T19:01:16.230Z,16.79
2017-08-19T19:03:43.729Z,16.79
2017-08-19T19:06:11.222Z,16.76
2017-08-19T19:08:38.678Z,16.70
2017-08-19T19:11:06.153Z,16.76
2017-08-19T19:13:33.627Z,16.80
2017-08-19T19:16:01.867Z,16.86
2017-08-19T19:18:30.048Z,16.76
2017-08-19T19:20:57.510Z,16.75
2017-08-19T19:23:24.963Z,16.59
2017-08-19T19:25:53.122Z,16.69
2017-08-19T19:28:20.573Z,16.99
2017-08-19T19:30:48.045Z,16.69
2017-08-19T19:33:15.496Z,16.84
2017-08-19T19:35:43.710Z,16.77
2017-08-19T19:38:11.981Z,16.78
2017-08-19T19:40:39.518Z,16.78
2017-08-19T19:43:06.984Z,16.86
2017-08-19T19:45:34.470Z,16.54
2017-08-19T19:48:01.954Z,16.34
2017-08-19T19:50:29.398Z,16.26
2017-08-19T19:52:57.615Z,16.50
2017-08-19T19:55:25.937Z,16.32
2017-08-19T19:57:53.480Z,16.39
2017-08-19T20:00:20.943Z,16.64
2017-08-19T20:02:48.421Z,16.82
2017-08-19T20:05:15.882Z,16.66
2017-08-19T20:07:43.348Z,16.55
2017-08-19T20:10:10.801Z,16.44
2017-08-19T20:12:38.273Z,16.46
2017-08-19T20:15:05.724Z,16.25
2017-08-19T20:17:33.182Z,16.42
2017-08-19T20:20:00.676Z,16.51
2017-08-19T20:22:28.180Z,16.78
2017-08-19T20:24:55.647Z,16.48
2017-08-19T20:27:23.157Z,16.43
2017-08-19T20:29:50.621Z,16.43
2017-08-19T20:32:18.094Z,16.21
2017-08-19T20:34:45.575Z,16.11
2017-08-19T20:37:13.166Z,16.14
2017-08-19T20:39:40.882Z,16.16
2017-08-19T20:42:08.332Z,16.40
2017-08-19T20:44:35.817Z,16.42
2017-08-19T20:47:03.271Z,16.30
2017-08-19T20:49:30.754Z,16.48
2017-08-19T20:51:58.718Z,16.87
2017-08-19T20:54:26.165Z,16.85
2017-08-19T20:56:53.651Z,16.80
2017-08-19T20:59:21.179Z,16.73
2017-08-19T21:01:48.674Z,16.55
2017-08-19T21:04:16.157Z,16.36
2017-08-19T21:06:43.642Z,16.65
2017-08-19T21:09:11.108Z,16.67
2017-08-19T21:11:38.575Z,16.66
2017-08-19T21:14:06.053Z,16.35
2017-08-19T21:16:33.524Z,16.17
2017-08-19T21:19:00.969Z,16.37
2017-08-19T21:21:28.439Z,16.35
2017-08-19T21:23:55.970Z,16.45
2017-08-19T21:26:23.465Z,16.32
2017-08-19T21:28:50.956Z,16.18
2017-08-19T21:31:18.494Z,16.05
2017-08-19T21:33:46.164Z,16.02
2017-08-19T21:36:13.638Z,16.08
2017-08-19T21:38:41.462Z,16.26
2017-08-19T21:41:08.950Z,16.18
2017-08-19T21:43:36.404Z,16.44
2017-08-19T21:46:03.889Z,16.46
2017-08-19T21:48:31.344Z,16.61
2017-08-19T21:50:58.817Z,16.75
2017-08-19T21:53:26.508Z,16.81
2017-08-19T21:55:53.998Z,16.30
2017-08-19T21:58:21.472Z,16.08
2017-08-19T22:00:48.963Z,15.93
2017-08-19T22:03:16.417Z,15.91
2017-08-19T22:05:43.876Z,15.91
2017-08-19T22:08:11.341Z,15.86
2017-08-19T22:10:38.790Z,15.85
2017-08-19T22:13:06.262Z,15.86
2017-08-19T22:15:33.740Z,15.89
2017-08-19T22:18:01.189Z,15.95
2017-08-19T22:20:28.649Z,15.99
2017-08-19T22:22:56.121Z,15.97
2017-08-19T22:25:23.592Z,15.94
2017-08-19T22:27:51.045Z,15.93
2017-08-19T22:30:18.500Z,15.98
2017-08-19T22:32:45.974Z,16.03
2017-08-19T22:35:13.444Z,15.95
2017-08-19T22:37:40.898Z,16.01
2017-08-19T22:40:08.474Z,15.94
2017-08-19T22:42:35.957Z,15.93
2017-08-19T22:45:03.400Z,15.97
2017-08-19T22:47:30.845Z,15.91
2017-08-19T22:49:58.316Z,15.87
2017-08-19T22:52:25.776Z,15.87
2017-08-19T22:54:53.253Z,15.87
2017-08-19T22:57:20.705Z,15.88
2017-08-19T22:59:48.158Z,15.97
2017-08-19T23:02:15.637Z,15.92
2017-08-19T23:04:43.095Z,16.02
2017-08-19T23:07:10.576Z,16.11
2017-08-19T23:09:38.036Z,16.08
2017-08-19T23:12:05.516Z,16.12
2017-08-19T23:14:32.967Z,16.07
2017-08-19T23:17:00.441Z,16.05
2017-08-19T23:19:27.895Z,16.05
2017-08-19T23:21:55.365Z,16.08
2017-08-19T23:24:22.850Z,16.14
2017-08-19T23:26:50.304Z,16.06
2017-08-19T23:29:17.757Z,16.03
2017-08-19T23:31:45.244Z,15.99
2017-08-19T23:34:12.709Z,16.16
2017-08-19T23:36:40.197Z,16.19
2017-08-19T23:39:07.657Z,16.18
2017-08-19T23:41:35.444Z,16.01
2017-08-19T23:44:02.934Z,16.02
2017-08-19T23:46:30.401Z,16.12
2017-08-19T23:48:57.886Z,16.05
2017-08-19T23:51:25.348Z,15.97
2017-08-19T23:53:52.852Z,15.94
2017-08-19T23:56:20.345Z,15.94
2017-08-19T23:58:47.802Z,15.97
